• Join FlightAware (Why Join?)
  • Login
  • US Flag 
09:58PM EST


 

Airport Tracker/Info


-or-


 

Live Flight TrackerFlight Track Log ✈ N589H ✈ 02-Jul-2014 ✈ KPIE - KBCT

Flight Track Log - Related Links

Times and Time Zones

All times are in EDT time to prevent confusion due to time zone crossing. See the N589H flight status page for this flight to view local times or setup timezone preferences in your user account.

Time Position Orientation Groundspeed Altitude Reporting Facility
EDT Latitude Longitude Course Direction KTS MPH feet Rate Location/Type
08:46AM 27.9333 -82.7000 270° West 152 175 600  Level Tampa TRACON
08:47AM 27.9333 -82.7333 270° West 180 207 1,600 1,260 Climbing Tampa TRACON
08:48AM 27.9000 -82.7833 233° Southwest 232 267 3,100 1,920 Climbing Tampa TRACON
08:49AM 27.8500 -82.7667 164° South 203 234 5,300 2,100 Climbing Tampa TRACON
08:50AM 27.7833 -82.7333 156° South 221 254 7,300 1,920 Climbing Tampa TRACON
08:52AM 27.6769 -82.6703 152° Southeast 233 268 11,100 1,920 Climbing Miami Center
08:53AM 27.6247 -82.6264 143° Southeast 233 268 13,100 1,800 Climbing Miami Center
08:54AM 27.5911 -82.5658 122° Southeast 237 273 14,900 900 Climbing Miami Center
08:55AM 27.5603 -82.4892 114° Southeast 270 311 15,000  Climbing Miami Center
08:56AM 27.5200 -82.4064 119° Southeast 299 344 15,000  Level Miami Center
08:57AM 27.4786 -82.3181 118° Southeast 316 364 15,000  Level Miami Center
08:58AM 27.4350 -82.2294 119° Southeast 325 374 15,000  Level Miami Center
08:59AM 27.3833 -82.1214 118° Southeast 328 377 15,000  Level Miami Center
09:00AM 27.3400 -82.0328 119° Southeast 328 377 15,000  Level Miami Center
09:01AM 27.2958 -81.9433 119° Southeast 328 377 15,000  Level Miami Center
09:02AM 27.2528 -81.8542 118° Southeast 328 377 15,000  Level Miami Center
09:03AM 27.2089 -81.7642 119° Southeast 328 377 15,000  Level Miami Center
09:04AM 27.1644 -81.6750 119° Southeast 328 377 15,000  Level Miami Center
09:05AM 27.1200 -81.5853 119° Southeast 329 379 15,000  Level Miami Center
09:06AM 27.0669 -81.4778 119° Southeast 329 379 15,000  Level Miami Center
09:07AM 27.0186 -81.3817 119° Southeast 333 383 15,000  Level Miami Center
09:08AM 26.9747 -81.2917 119° Southeast 332 382 15,000 -480 Level Miami Center
09:09AM 26.9292 -81.2022 120° Southeast 332 382 14,100 -1,020 Descending Miami Center
09:10AM 26.8800 -81.1039 119° Southeast 334 384 13,000 -1,080 Descending Miami Center
09:11AM 26.8331 -81.0067 118° Southeast 337 388 12,000 -1,020 Descending Miami Center
09:12AM 26.7931 -80.9208 118° Southeast 327 376 11,000 -1,020 Descending Miami Center
09:13AM 26.7506 -80.8297 118° Southeast 320 368 10,000 -1,020 Descending Miami Center
09:14AM 26.7078 -80.7397 118° Southeast 316 364 9,000 -540 Descending Miami Center
09:15AM 26.6703 -80.6550 116° Southeast 304 350 9,000 -360 Level Miami Center
09:16AM 26.6303 -80.5661 117° Southeast 299 344 8,300 -840 Descending Miami Center
09:17AM 26.5892 -80.4811 118° Southeast 309 356 7,300 -960 Descending Miami Center
09:18AM 26.5489 -80.3944 117° Southeast 314 361 6,400 -1,020 Descending Miami Center
09:19AM 26.5256 -80.2953 105° East 311 358 5,300 -1,080 Descending Miami Center
09:20AM 26.5231 -80.2033 92° East 298 343 4,300 -1,020 Descending Miami Center
09:21AM 26.5019 -80.1278 107° East 258 297 3,300 -1,320 Descending Miami Center
09:23AM 26.4586 -80.0739 132° Southeast 223 257 1,600 -1,140 Descending Miami Center
09:24AM 26.4050 -80.0719 178° South 190 219 1,000 -600 Descending Miami Center
09:25AM 26.3758 -80.1028 223° Southwest 158 182 400 -600 Descending Miami Center
09:27AM 26.3667 -80.1000 North  Level FlightAware Approximate